sensor_id;sensor_type;location;lat;lon;timestamp;P1;durP1;ratioP1;P2;durP2;ratioP2
57317;SDS011;43157;50.982;18.132;2022-11-20T00:02:17;67.80;;;25.30;;
57317;SDS011;43157;50.982;18.132;2022-11-20T00:04:43;70.70;;;24.40;;
57317;SDS011;43157;50.982;18.132;2022-11-20T00:07:09;61.60;;;23.10;;
57317;SDS011;43157;50.982;18.132;2022-11-20T00:09:35;66.10;;;22.70;;
57317;SDS011;43157;50.982;18.132;2022-11-20T00:12:01;67.10;;;24.40;;
57317;SDS011;43157;50.982;18.132;2022-11-20T00:14:27;67.50;;;23.20;;
57317;SDS011;43157;50.982;18.132;2022-11-20T00:16:53;64.40;;;22.30;;
57317;SDS011;43157;50.982;18.132;2022-11-20T00:19:18;69.00;;;22.40;;
57317;SDS011;43157;50.982;18.132;2022-11-20T00:21:44;81.10;;;28.00;;
57317;SDS011;43157;50.982;18.132;2022-11-20T00:24:10;75.60;;;29.20;;
57317;SDS011;43157;50.982;18.132;2022-11-20T00:26:37;68.50;;;24.90;;
57317;SDS011;43157;50.982;18.132;2022-11-20T00:29:03;95.00;;;33.90;;
57317;SDS011;43157;50.982;18.132;2022-11-20T00:31:29;86.40;;;31.40;;
57317;SDS011;43157;50.982;18.132;2022-11-20T00:33:54;75.20;;;27.80;;
57317;SDS011;43157;50.982;18.132;2022-11-20T00:36:24;74.20;;;26.90;;
57317;SDS011;43157;50.982;18.132;2022-11-20T00:38:53;68.90;;;25.90;;
57317;SDS011;43157;50.982;18.132;2022-11-20T00:41:19;62.60;;;21.50;;
57317;SDS011;43157;50.982;18.132;2022-11-20T00:43:45;54.90;;;18.00;;
57317;SDS011;43157;50.982;18.132;2022-11-20T00:46:14;75.90;;;23.50;;
57317;SDS011;43157;50.982;18.132;2022-11-20T00:48:41;61.10;;;19.50;;
57317;SDS011;43157;50.982;18.132;2022-11-20T00:51:07;53.90;;;20.60;;
57317;SDS011;43157;50.982;18.132;2022-11-20T00:53:32;60.00;;;19.60;;
57317;SDS011;43157;50.982;18.132;2022-11-20T00:55:59;65.80;;;24.60;;
57317;SDS011;43157;50.982;18.132;2022-11-20T00:58:25;60.60;;;21.50;;
57317;SDS011;43157;50.982;18.132;2022-11-20T01:00:54;95.70;;;30.60;;
57317;SDS011;43157;50.982;18.132;2022-11-20T01:03:24;77.40;;;27.10;;
57317;SDS011;43157;50.982;18.132;2022-11-20T01:05:50;65.20;;;21.20;;
57317;SDS011;43157;50.982;18.132;2022-11-20T01:08:16;77.10;;;25.60;;
57317;SDS011;43157;50.982;18.132;2022-11-20T01:10:42;69.80;;;27.90;;
57317;SDS011;43157;50.982;18.132;2022-11-20T01:13:07;62.80;;;23.20;;
57317;SDS011;43157;50.982;18.132;2022-11-20T01:15:51;75.10;;;29.60;;
57317;SDS011;43157;50.982;18.132;2022-11-20T01:18:18;70.10;;;24.90;;
57317;SDS011;43157;50.982;18.132;2022-11-20T01:20:44;73.10;;;25.80;;
57317;SDS011;43157;50.982;18.132;2022-11-20T01:23:09;64.20;;;24.00;;
57317;SDS011;43157;50.982;18.132;2022-11-20T01:25:35;64.70;;;24.50;;
57317;SDS011;43157;50.982;18.132;2022-11-20T01:28:01;73.10;;;26.40;;
57317;SDS011;43157;50.982;18.132;2022-11-20T01:30:28;72.60;;;26.00;;
57317;SDS011;43157;50.982;18.132;2022-11-20T01:32:54;52.20;;;21.30;;
57317;SDS011;43157;50.982;18.132;2022-11-20T01:35:20;65.00;;;22.40;;
57317;SDS011;43157;50.982;18.132;2022-11-20T01:37:45;65.10;;;24.40;;
57317;SDS011;43157;50.982;18.132;2022-11-20T01:40:11;66.70;;;23.20;;
57317;SDS011;43157;50.982;18.132;2022-11-20T01:42:37;63.70;;;21.30;;
57317;SDS011;43157;50.982;18.132;2022-11-20T01:48:05;61.90;;;21.20;;
57317;SDS011;43157;50.982;18.132;2022-11-20T01:50:31;60.40;;;20.10;;
57317;SDS011;43157;50.982;18.132;2022-11-20T01:53:03;61.30;;;22.00;;
57317;SDS011;43157;50.982;18.132;2022-11-20T01:55:31;61.90;;;23.20;;
57317;SDS011;43157;50.982;18.132;2022-11-20T01:57:58;59.50;;;21.20;;
57317;SDS011;43157;50.982;18.132;2022-11-20T02:00:24;59.10;;;21.40;;
57317;SDS011;43157;50.982;18.132;2022-11-20T02:02:53;64.60;;;22.80;;
57317;SDS011;43157;50.982;18.132;2022-11-20T02:05:25;59.20;;;22.90;;
57317;SDS011;43157;50.982;18.132;2022-11-20T02:07:52;54.80;;;21.70;;
57317;SDS011;43157;50.982;18.132;2022-11-20T02:10:18;72.20;;;24.70;;
57317;SDS011;43157;50.982;18.132;2022-11-20T02:12:43;67.90;;;23.70;;
57317;SDS011;43157;50.982;18.132;2022-11-20T02:15:27;68.80;;;25.20;;
57317;SDS011;43157;50.982;18.132;2022-11-20T02:17:54;64.90;;;24.90;;
57317;SDS011;43157;50.982;18.132;2022-11-20T02:20:20;67.20;;;24.80;;
57317;SDS011;43157;50.982;18.132;2022-11-20T02:22:48;76.20;;;27.30;;
57317;SDS011;43157;50.982;18.132;2022-11-20T02:25:18;72.10;;;28.90;;
57317;SDS011;43157;50.982;18.132;2022-11-20T02:27:44;72.90;;;27.80;;
57317;SDS011;43157;50.982;18.132;2022-11-20T02:30:09;68.50;;;26.50;;
57317;SDS011;43157;50.982;18.132;2022-11-20T02:32:37;70.20;;;25.60;;
57317;SDS011;43157;50.982;18.132;2022-11-20T02:35:35;64.20;;;24.30;;
57317;SDS011;43157;50.982;18.132;2022-11-20T02:37:55;69.00;;;25.60;;
57317;SDS011;43157;50.982;18.132;2022-11-20T02:40:21;72.10;;;25.90;;
57317;SDS011;43157;50.982;18.132;2022-11-20T02:42:47;70.00;;;25.30;;
57317;SDS011;43157;50.982;18.132;2022-11-20T02:45:13;62.50;;;24.70;;
57317;SDS011;43157;50.982;18.132;2022-11-20T02:47:38;68.60;;;26.10;;
57317;SDS011;43157;50.982;18.132;2022-11-20T02:50:05;64.70;;;22.50;;
57317;SDS011;43157;50.982;18.132;2022-11-20T02:52:31;71.60;;;26.20;;
57317;SDS011;43157;50.982;18.132;2022-11-20T02:54:57;90.70;;;28.90;;
57317;SDS011;43157;50.982;18.132;2022-11-20T02:57:22;72.90;;;28.00;;
57317;SDS011;43157;50.982;18.132;2022-11-20T02:59:48;85.20;;;33.00;;
57317;SDS011;43157;50.982;18.132;2022-11-20T03:02:14;93.60;;;35.90;;
57317;SDS011;43157;50.982;18.132;2022-11-20T03:04:41;94.70;;;33.20;;
57317;SDS011;43157;50.982;18.132;2022-11-20T03:07:08;75.50;;;29.10;;
57317;SDS011;43157;50.982;18.132;2022-11-20T03:09:35;74.70;;;26.70;;
57317;SDS011;43157;50.982;18.132;2022-11-20T03:12:00;73.60;;;27.30;;
57317;SDS011;43157;50.982;18.132;2022-11-20T03:14:26;73.30;;;26.40;;
57317;SDS011;43157;50.982;18.132;2022-11-20T03:16:52;80.60;;;27.00;;
57317;SDS011;43157;50.982;18.132;2022-11-20T03:19:18;76.90;;;26.00;;
57317;SDS011;43157;50.982;18.132;2022-11-20T03:21:44;68.90;;;26.30;;
57317;SDS011;43157;50.982;18.132;2022-11-20T03:24:10;83.30;;;29.30;;
57317;SDS011;43157;50.982;18.132;2022-11-20T03:26:35;75.00;;;25.50;;
57317;SDS011;43157;50.982;18.132;2022-11-20T03:29:02;71.40;;;25.30;;
57317;SDS011;43157;50.982;18.132;2022-11-20T03:31:32;81.50;;;30.50;;
57317;SDS011;43157;50.982;18.132;2022-11-20T03:33:58;78.10;;;26.90;;
57317;SDS011;43157;50.982;18.132;2022-11-20T03:36:24;77.60;;;28.20;;
57317;SDS011;43157;50.982;18.132;2022-11-20T03:38:49;76.40;;;26.30;;
57317;SDS011;43157;50.982;18.132;2022-11-20T03:41:19;73.30;;;27.30;;
57317;SDS011;43157;50.982;18.132;2022-11-20T03:44:04;81.70;;;31.60;;
57317;SDS011;43157;50.982;18.132;2022-11-20T03:46:30;73.20;;;26.90;;
57317;SDS011;43157;50.982;18.132;2022-11-20T03:48:57;99.60;;;31.80;;
57317;SDS011;43157;50.982;18.132;2022-11-20T03:51:24;80.40;;;26.80;;
57317;SDS011;43157;50.982;18.132;2022-11-20T03:53:51;75.50;;;25.20;;
57317;SDS011;43157;50.982;18.132;2022-11-20T03:56:18;69.40;;;27.80;;
57317;SDS011;43157;50.982;18.132;2022-11-20T03:58:44;80.10;;;30.00;;
57317;SDS011;43157;50.982;18.132;2022-11-20T04:01:11;73.80;;;25.90;;
57317;SDS011;43157;50.982;18.132;2022-11-20T04:03:37;87.50;;;28.90;;
57317;SDS011;43157;50.982;18.132;2022-11-20T04:06:10;78.30;;;26.70;;
57317;SDS011;43157;50.982;18.132;2022-11-20T04:08:39;75.20;;;26.10;;
57317;SDS011;43157;50.982;18.132;2022-11-20T04:11:15;59.90;;;23.20;;
57317;SDS011;43157;50.982;18.132;2022-11-20T04:13:47;72.30;;;24.70;;
57317;SDS011;43157;50.982;18.132;2022-11-20T04:16:14;69.10;;;23.80;;
57317;SDS011;43157;50.982;18.132;2022-11-20T04:18:40;71.80;;;24.90;;
57317;SDS011;43157;50.982;18.132;2022-11-20T04:21:06;83.80;;;27.50;;
57317;SDS011;43157;50.982;18.132;2022-11-20T04:23:32;74.20;;;26.90;;
57317;SDS011;43157;50.982;18.132;2022-11-20T04:26:02;80.80;;;27.30;;
57317;SDS011;43157;50.982;18.132;2022-11-20T04:28:28;63.80;;;22.50;;
57317;SDS011;43157;50.982;18.132;2022-11-20T04:30:53;84.60;;;29.40;;
57317;SDS011;43157;50.982;18.132;2022-11-20T04:33:20;73.10;;;29.10;;
57317;SDS011;43157;50.982;18.132;2022-11-20T04:35:46;84.20;;;30.20;;
57317;SDS011;43157;50.982;18.132;2022-11-20T04:38:12;71.50;;;25.50;;
57317;SDS011;43157;50.982;18.132;2022-11-20T04:40:37;67.60;;;24.20;;
57317;SDS011;43157;50.982;18.132;2022-11-20T04:43:03;71.60;;;25.70;;
57317;SDS011;43157;50.982;18.132;2022-11-20T04:45:28;65.60;;;24.40;;
57317;SDS011;43157;50.982;18.132;2022-11-20T04:47:54;76.00;;;28.20;;
57317;SDS011;43157;50.982;18.132;2022-11-20T04:50:20;79.00;;;26.70;;
57317;SDS011;43157;50.982;18.132;2022-11-20T04:52:46;72.80;;;25.80;;
57317;SDS011;43157;50.982;18.132;2022-11-20T04:55:12;81.90;;;29.20;;
57317;SDS011;43157;50.982;18.132;2022-11-20T04:57:38;76.40;;;26.50;;
57317;SDS011;43157;50.982;18.132;2022-11-20T05:00:04;85.50;;;27.20;;
57317;SDS011;43157;50.982;18.132;2022-11-20T05:02:30;88.20;;;28.40;;
57317;SDS011;43157;50.982;18.132;2022-11-20T05:04:56;70.30;;;25.60;;
57317;SDS011;43157;50.982;18.132;2022-11-20T05:07:22;72.10;;;25.80;;
57317;SDS011;43157;50.982;18.132;2022-11-20T05:09:47;92.40;;;31.70;;
57317;SDS011;43157;50.982;18.132;2022-11-20T05:12:13;91.90;;;33.80;;
57317;SDS011;43157;50.982;18.132;2022-11-20T05:14:39;88.00;;;30.70;;
57317;SDS011;43157;50.982;18.132;2022-11-20T05:17:05;89.30;;;33.60;;
57317;SDS011;43157;50.982;18.132;2022-11-20T05:19:31;103.70;;;36.60;;
57317;SDS011;43157;50.982;18.132;2022-11-20T05:21:57;89.60;;;30.90;;
57317;SDS011;43157;50.982;18.132;2022-11-20T05:24:22;98.70;;;35.70;;
57317;SDS011;43157;50.982;18.132;2022-11-20T05:26:51;112.00;;;37.40;;
57317;SDS011;43157;50.982;18.132;2022-11-20T05:29:16;102.40;;;36.40;;
57317;SDS011;43157;50.982;18.132;2022-11-20T05:31:42;88.80;;;29.70;;
57317;SDS011;43157;50.982;18.132;2022-11-20T05:34:07;112.60;;;36.20;;
57317;SDS011;43157;50.982;18.132;2022-11-20T05:36:33;111.30;;;38.90;;
57317;SDS011;43157;50.982;18.132;2022-11-20T05:38:59;116.40;;;39.20;;
57317;SDS011;43157;50.982;18.132;2022-11-20T05:41:25;117.90;;;39.90;;
57317;SDS011;43157;50.982;18.132;2022-11-20T05:43:51;122.10;;;48.40;;
57317;SDS011;43157;50.982;18.132;2022-11-20T05:46:18;111.20;;;41.10;;
57317;SDS011;43157;50.982;18.132;2022-11-20T05:48:44;128.60;;;49.80;;
57317;SDS011;43157;50.982;18.132;2022-11-20T05:51:11;196.20;;;66.90;;
57317;SDS011;43157;50.982;18.132;2022-11-20T05:53:37;132.10;;;43.90;;
57317;SDS011;43157;50.982;18.132;2022-11-20T05:56:05;113.30;;;40.00;;
57317;SDS011;43157;50.982;18.132;2022-11-20T05:58:31;121.50;;;43.00;;
57317;SDS011;43157;50.982;18.132;2022-11-20T06:01:06;105.10;;;39.20;;
57317;SDS011;43157;50.982;18.132;2022-11-20T06:03:32;125.50;;;41.40;;
57317;SDS011;43157;50.982;18.132;2022-11-20T06:05:58;123.70;;;41.20;;
57317;SDS011;43157;50.982;18.132;2022-11-20T06:08:24;115.30;;;39.40;;
57317;SDS011;43157;50.982;18.132;2022-11-20T06:10:49;119.10;;;42.70;;
57317;SDS011;43157;50.982;18.132;2022-11-20T06:13:15;116.30;;;41.20;;
57317;SDS011;43157;50.982;18.132;2022-11-20T06:15:42;97.90;;;32.80;;
57317;SDS011;43157;50.982;18.132;2022-11-20T06:18:08;105.70;;;36.60;;
57317;SDS011;43157;50.982;18.132;2022-11-20T06:20:34;107.00;;;38.50;;
57317;SDS011;43157;50.982;18.132;2022-11-20T06:22:59;110.10;;;37.60;;
57317;SDS011;43157;50.982;18.132;2022-11-20T06:25:25;111.30;;;40.40;;
57317;SDS011;43157;50.982;18.132;2022-11-20T06:27:51;110.30;;;35.60;;
57317;SDS011;43157;50.982;18.132;2022-11-20T06:30:17;115.60;;;39.40;;
57317;SDS011;43157;50.982;18.132;2022-11-20T06:32:43;123.20;;;44.00;;
57317;SDS011;43157;50.982;18.132;2022-11-20T06:35:09;143.80;;;50.90;;
57317;SDS011;43157;50.982;18.132;2022-11-20T06:37:35;138.30;;;49.20;;
57317;SDS011;43157;50.982;18.132;2022-11-20T06:40:01;159.20;;;55.50;;
57317;SDS011;43157;50.982;18.132;2022-11-20T06:42:27;240.50;;;73.90;;
57317;SDS011;43157;50.982;18.132;2022-11-20T06:44:53;160.60;;;58.20;;
57317;SDS011;43157;50.982;18.132;2022-11-20T06:47:19;204.90;;;67.80;;
57317;SDS011;43157;50.982;18.132;2022-11-20T06:49:44;140.50;;;50.90;;
57317;SDS011;43157;50.982;18.132;2022-11-20T06:52:10;143.00;;;54.10;;
57317;SDS011;43157;50.982;18.132;2022-11-20T06:54:37;181.60;;;64.10;;
57317;SDS011;43157;50.982;18.132;2022-11-20T06:57:03;154.40;;;57.40;;
57317;SDS011;43157;50.982;18.132;2022-11-20T06:59:28;133.90;;;49.40;;
57317;SDS011;43157;50.982;18.132;2022-11-20T07:01:54;122.80;;;48.70;;
57317;SDS011;43157;50.982;18.132;2022-11-20T07:04:20;128.40;;;51.40;;
57317;SDS011;43157;50.982;18.132;2022-11-20T07:06:45;117.10;;;48.80;;
57317;SDS011;43157;50.982;18.132;2022-11-20T07:09:11;118.10;;;48.10;;
57317;SDS011;43157;50.982;18.132;2022-11-20T07:11:37;122.10;;;45.90;;
57317;SDS011;43157;50.982;18.132;2022-11-20T07:14:03;123.60;;;46.40;;
57317;SDS011;43157;50.982;18.132;2022-11-20T07:16:29;118.80;;;47.40;;
57317;SDS011;43157;50.982;18.132;2022-11-20T07:18:55;119.00;;;47.60;;
57317;SDS011;43157;50.982;18.132;2022-11-20T07:21:21;109.60;;;44.90;;
57317;SDS011;43157;50.982;18.132;2022-11-20T07:23:47;118.90;;;46.40;;
57317;SDS011;43157;50.982;18.132;2022-11-20T07:26:13;117.90;;;46.40;;
57317;SDS011;43157;50.982;18.132;2022-11-20T07:28:39;124.10;;;52.80;;
57317;SDS011;43157;50.982;18.132;2022-11-20T07:31:04;118.80;;;47.30;;
57317;SDS011;43157;50.982;18.132;2022-11-20T07:33:32;122.60;;;47.90;;
57317;SDS011;43157;50.982;18.132;2022-11-20T07:35:58;115.10;;;46.00;;
57317;SDS011;43157;50.982;18.132;2022-11-20T07:38:24;140.10;;;51.80;;
57317;SDS011;43157;50.982;18.132;2022-11-20T07:40:53;134.00;;;52.10;;
57317;SDS011;43157;50.982;18.132;2022-11-20T07:43:18;123.10;;;48.20;;
57317;SDS011;43157;50.982;18.132;2022-11-20T07:45:44;144.60;;;55.90;;
57317;SDS011;43157;50.982;18.132;2022-11-20T07:48:09;153.70;;;59.80;;
57317;SDS011;43157;50.982;18.132;2022-11-20T07:50:35;175.40;;;66.50;;
57317;SDS011;43157;50.982;18.132;2022-11-20T07:53:02;190.70;;;67.10;;
57317;SDS011;43157;50.982;18.132;2022-11-20T07:55:28;193.70;;;70.80;;
57317;SDS011;43157;50.982;18.132;2022-11-20T07:57:55;141.90;;;51.50;;
57317;SDS011;43157;50.982;18.132;2022-11-20T08:00:21;124.80;;;48.10;;
57317;SDS011;43157;50.982;18.132;2022-11-20T08:02:46;126.40;;;46.20;;
57317;SDS011;43157;50.982;18.132;2022-11-20T08:05:12;131.20;;;47.10;;
57317;SDS011;43157;50.982;18.132;2022-11-20T08:07:38;119.90;;;43.00;;
57317;SDS011;43157;50.982;18.132;2022-11-20T08:10:04;120.50;;;44.00;;
57317;SDS011;43157;50.982;18.132;2022-11-20T08:12:29;126.40;;;46.30;;
57317;SDS011;43157;50.982;18.132;2022-11-20T08:15:13;137.50;;;46.50;;
57317;SDS011;43157;50.982;18.132;2022-11-20T08:17:39;160.70;;;53.80;;
57317;SDS011;43157;50.982;18.132;2022-11-20T08:20:06;132.90;;;46.60;;
57317;SDS011;43157;50.982;18.132;2022-11-20T08:22:32;128.60;;;46.70;;
57317;SDS011;43157;50.982;18.132;2022-11-20T08:24:57;137.50;;;48.60;;
57317;SDS011;43157;50.982;18.132;2022-11-20T08:27:23;118.70;;;47.10;;
57317;SDS011;43157;50.982;18.132;2022-11-20T08:29:48;123.60;;;47.60;;
57317;SDS011;43157;50.982;18.132;2022-11-20T08:32:14;127.50;;;48.40;;
57317;SDS011;43157;50.982;18.132;2022-11-20T08:34:40;135.30;;;55.90;;
57317;SDS011;43157;50.982;18.132;2022-11-20T08:37:06;124.80;;;51.40;;
57317;SDS011;43157;50.982;18.132;2022-11-20T08:39:32;91.70;;;39.70;;
57317;SDS011;43157;50.982;18.132;2022-11-20T08:42:01;101.80;;;43.10;;
57317;SDS011;43157;50.982;18.132;2022-11-20T08:44:26;108.20;;;45.10;;
57317;SDS011;43157;50.982;18.132;2022-11-20T08:46:52;108.30;;;43.10;;
57317;SDS011;43157;50.982;18.132;2022-11-20T08:49:19;145.40;;;68.30;;
57317;SDS011;43157;50.982;18.132;2022-11-20T08:51:44;336.00;;;133.40;;
57317;SDS011;43157;50.982;18.132;2022-11-20T08:54:12;98.80;;;43.70;;
57317;SDS011;43157;50.982;18.132;2022-11-20T08:56:37;94.80;;;41.50;;
57317;SDS011;43157;50.982;18.132;2022-11-20T08:59:04;92.70;;;40.60;;
57317;SDS011;43157;50.982;18.132;2022-11-20T09:01:29;89.80;;;40.60;;
57317;SDS011;43157;50.982;18.132;2022-11-20T09:03:55;87.50;;;38.10;;
57317;SDS011;43157;50.982;18.132;2022-11-20T09:06:22;86.70;;;39.00;;
57317;SDS011;43157;50.982;18.132;2022-11-20T09:08:51;86.70;;;38.90;;
57317;SDS011;43157;50.982;18.132;2022-11-20T09:11:17;84.40;;;37.80;;
57317;SDS011;43157;50.982;18.132;2022-11-20T09:13:42;81.00;;;35.60;;
57317;SDS011;43157;50.982;18.132;2022-11-20T09:16:08;86.20;;;38.90;;
57317;SDS011;43157;50.982;18.132;2022-11-20T09:18:34;85.70;;;40.60;;
57317;SDS011;43157;50.982;18.132;2022-11-20T09:21:09;87.30;;;38.50;;
57317;SDS011;43157;50.982;18.132;2022-11-20T09:23:36;81.20;;;39.00;;
57317;SDS011;43157;50.982;18.132;2022-11-20T09:26:12;90.10;;;42.60;;
57317;SDS011;43157;50.982;18.132;2022-11-20T09:28:38;90.40;;;39.70;;
57317;SDS011;43157;50.982;18.132;2022-11-20T09:31:07;175.30;;;69.30;;
57317;SDS011;43157;50.982;18.132;2022-11-20T09:33:33;94.10;;;44.80;;
57317;SDS011;43157;50.982;18.132;2022-11-20T09:35:59;91.80;;;40.40;;
57317;SDS011;43157;50.982;18.132;2022-11-20T09:38:24;83.20;;;37.10;;
57317;SDS011;43157;50.982;18.132;2022-11-20T09:40:57;87.60;;;40.50;;
57317;SDS011;43157;50.982;18.132;2022-11-20T09:44:07;71.60;;;32.00;;
57317;SDS011;43157;50.982;18.132;2022-11-20T09:56:39;84.90;;;38.40;;
57317;SDS011;43157;50.982;18.132;2022-11-20T09:59:07;84.90;;;37.40;;
57317;SDS011;43157;50.982;18.132;2022-11-20T10:01:34;83.00;;;36.10;;
57317;SDS011;43157;50.982;18.132;2022-11-20T10:04:12;65.20;;;31.30;;
57317;SDS011;43157;50.982;18.132;2022-11-20T10:06:41;53.20;;;25.00;;
57317;SDS011;43157;50.982;18.132;2022-11-20T10:11:46;50.30;;;23.30;;
57317;SDS011;43157;50.982;18.132;2022-11-20T10:27:19;48.80;;;23.60;;
57317;SDS011;43157;50.982;18.132;2022-11-20T10:29:54;47.80;;;23.60;;
57317;SDS011;43157;50.982;18.132;2022-11-20T10:32:26;59.10;;;27.40;;
57317;SDS011;43157;50.982;18.132;2022-11-20T10:34:55;54.70;;;28.00;;
57317;SDS011;43157;50.982;18.132;2022-11-20T10:37:22;35.20;;;17.40;;
57317;SDS011;43157;50.982;18.132;2022-11-20T10:47:46;57.50;;;27.40;;
57317;SDS011;43157;50.982;18.132;2022-11-20T10:50:13;60.50;;;28.10;;
57317;SDS011;43157;50.982;18.132;2022-11-20T10:52:52;53.00;;;25.00;;
57317;SDS011;43157;50.982;18.132;2022-11-20T10:55:28;40.20;;;19.30;;
57317;SDS011;43157;50.982;18.132;2022-11-20T10:58:12;39.80;;;18.50;;
57317;SDS011;43157;50.982;18.132;2022-11-20T11:00:39;40.90;;;18.90;;
57317;SDS011;43157;50.982;18.132;2022-11-20T11:03:25;42.20;;;20.50;;
57317;SDS011;43157;50.982;18.132;2022-11-20T11:08:32;39.60;;;19.80;;
57317;SDS011;43157;50.982;18.132;2022-11-20T11:11:00;58.90;;;26.60;;
57317;SDS011;43157;50.982;18.132;2022-11-20T11:13:28;49.00;;;23.20;;
57317;SDS011;43157;50.982;18.132;2022-11-20T11:15:54;45.30;;;20.90;;
57317;SDS011;43157;50.982;18.132;2022-11-20T11:18:25;60.30;;;27.50;;
57317;SDS011;43157;50.982;18.132;2022-11-20T11:20:51;47.20;;;21.90;;
57317;SDS011;43157;50.982;18.132;2022-11-20T11:23:28;45.60;;;20.30;;
57317;SDS011;43157;50.982;18.132;2022-11-20T11:25:58;37.40;;;18.40;;
57317;SDS011;43157;50.982;18.132;2022-11-20T11:28:24;55.60;;;29.20;;
57317;SDS011;43157;50.982;18.132;2022-11-20T11:30:51;49.10;;;20.20;;
57317;SDS011;43157;50.982;18.132;2022-11-20T11:33:21;53.10;;;26.60;;
57317;SDS011;43157;50.982;18.132;2022-11-20T11:35:57;43.90;;;18.90;;
57317;SDS011;43157;50.982;18.132;2022-11-20T11:38:36;51.50;;;20.40;;
57317;SDS011;43157;50.982;18.132;2022-11-20T11:41:02;58.10;;;25.50;;
57317;SDS011;43157;50.982;18.132;2022-11-20T11:43:29;45.90;;;20.60;;
57317;SDS011;43157;50.982;18.132;2022-11-20T11:49:11;57.10;;;23.10;;
57317;SDS011;43157;50.982;18.132;2022-11-20T11:51:46;52.50;;;21.10;;
57317;SDS011;43157;50.982;18.132;2022-11-20T11:54:30;50.70;;;22.20;;
57317;SDS011;43157;50.982;18.132;2022-11-20T11:57:01;48.80;;;20.00;;
57317;SDS011;43157;50.982;18.132;2022-11-20T11:59:43;52.80;;;20.50;;
57317;SDS011;43157;50.982;18.132;2022-11-20T12:02:15;53.20;;;20.90;;
57317;SDS011;43157;50.982;18.132;2022-11-20T12:09:53;55.80;;;22.10;;
57317;SDS011;43157;50.982;18.132;2022-11-20T12:12:20;52.40;;;24.30;;
57317;SDS011;43157;50.982;18.132;2022-11-20T12:14:48;52.10;;;24.20;;
57317;SDS011;43157;50.982;18.132;2022-11-20T12:17:15;59.80;;;26.60;;
57317;SDS011;43157;50.982;18.132;2022-11-20T12:19:41;62.80;;;27.30;;
57317;SDS011;43157;50.982;18.132;2022-11-20T12:30:09;68.50;;;32.60;;
57317;SDS011;43157;50.982;18.132;2022-11-20T12:35:12;73.30;;;33.50;;
57317;SDS011;43157;50.982;18.132;2022-11-20T12:42:47;43.40;;;18.40;;
57317;SDS011;43157;50.982;18.132;2022-11-20T12:45:46;41.00;;;19.90;;
57317;SDS011;43157;50.982;18.132;2022-11-20T13:01:30;33.40;;;14.10;;
57317;SDS011;43157;50.982;18.132;2022-11-20T13:06:46;40.20;;;17.60;;
57317;SDS011;43157;50.982;18.132;2022-11-20T13:09:13;38.40;;;17.40;;
57317;SDS011;43157;50.982;18.132;2022-11-20T13:16:52;47.10;;;21.60;;
57317;SDS011;43157;50.982;18.132;2022-11-20T13:19:19;42.80;;;20.60;;
57317;SDS011;43157;50.982;18.132;2022-11-20T13:21:46;50.00;;;21.80;;
57317;SDS011;43157;50.982;18.132;2022-11-20T13:29:36;60.80;;;25.40;;
57317;SDS011;43157;50.982;18.132;2022-11-20T13:32:06;56.20;;;25.80;;
57317;SDS011;43157;50.982;18.132;2022-11-20T13:34:38;67.40;;;30.40;;
57317;SDS011;43157;50.982;18.132;2022-11-20T13:37:04;76.80;;;31.40;;
57317;SDS011;43157;50.982;18.132;2022-11-20T13:39:33;70.90;;;30.00;;
57317;SDS011;43157;50.982;18.132;2022-11-20T13:42:18;63.90;;;26.50;;
57317;SDS011;43157;50.982;18.132;2022-11-20T13:44:54;65.70;;;28.90;;
57317;SDS011;43157;50.982;18.132;2022-11-20T13:47:26;67.80;;;31.00;;
57317;SDS011;43157;50.982;18.132;2022-11-20T13:49:52;71.80;;;31.20;;
57317;SDS011;43157;50.982;18.132;2022-11-20T14:00:20;76.00;;;32.80;;
57317;SDS011;43157;50.982;18.132;2022-11-20T14:02:58;79.80;;;33.90;;
57317;SDS011;43157;50.982;18.132;2022-11-20T14:05:24;75.00;;;31.40;;
57317;SDS011;43157;50.982;18.132;2022-11-20T14:07:50;80.80;;;32.30;;
57317;SDS011;43157;50.982;18.132;2022-11-20T14:12:48;71.00;;;28.10;;
57317;SDS011;43157;50.982;18.132;2022-11-20T14:17:53;79.30;;;30.50;;
57317;SDS011;43157;50.982;18.132;2022-11-20T14:20:20;79.90;;;28.80;;
57317;SDS011;43157;50.982;18.132;2022-11-20T14:22:50;94.00;;;35.20;;
57317;SDS011;43157;50.982;18.132;2022-11-20T14:27:42;86.30;;;30.70;;
57317;SDS011;43157;50.982;18.132;2022-11-20T14:30:15;124.50;;;40.10;;
57317;SDS011;43157;50.982;18.132;2022-11-20T14:32:41;125.60;;;45.60;;
57317;SDS011;43157;50.982;18.132;2022-11-20T14:35:08;83.20;;;32.20;;
57317;SDS011;43157;50.982;18.132;2022-11-20T14:37:37;96.70;;;36.80;;
57317;SDS011;43157;50.982;18.132;2022-11-20T14:40:05;131.80;;;47.70;;
57317;SDS011;43157;50.982;18.132;2022-11-20T14:42:31;120.30;;;47.00;;
57317;SDS011;43157;50.982;18.132;2022-11-20T14:44:57;95.10;;;37.80;;
57317;SDS011;43157;50.982;18.132;2022-11-20T14:47:27;116.70;;;43.80;;
57317;SDS011;43157;50.982;18.132;2022-11-20T14:49:55;121.20;;;46.90;;
57317;SDS011;43157;50.982;18.132;2022-11-20T14:52:22;127.60;;;49.20;;
57317;SDS011;43157;50.982;18.132;2022-11-20T14:59:45;138.70;;;54.10;;
57317;SDS011;43157;50.982;18.132;2022-11-20T15:02:11;136.20;;;51.20;;
57317;SDS011;43157;50.982;18.132;2022-11-20T15:07:11;138.50;;;56.60;;
57317;SDS011;43157;50.982;18.132;2022-11-20T15:09:47;127.40;;;49.90;;
57317;SDS011;43157;50.982;18.132;2022-11-20T15:12:15;122.40;;;44.80;;
57317;SDS011;43157;50.982;18.132;2022-11-20T15:14:42;140.90;;;49.30;;
57317;SDS011;43157;50.982;18.132;2022-11-20T15:17:09;114.30;;;41.10;;
57317;SDS011;43157;50.982;18.132;2022-11-20T15:19:35;138.30;;;46.00;;
57317;SDS011;43157;50.982;18.132;2022-11-20T15:22:01;126.00;;;44.20;;
57317;SDS011;43157;50.982;18.132;2022-11-20T15:24:26;95.30;;;32.40;;
57317;SDS011;43157;50.982;18.132;2022-11-20T15:26:52;82.00;;;31.40;;
57317;SDS011;43157;50.982;18.132;2022-11-20T15:29:18;94.60;;;33.50;;
57317;SDS011;43157;50.982;18.132;2022-11-20T15:31:44;83.10;;;31.20;;
57317;SDS011;43157;50.982;18.132;2022-11-20T15:34:10;81.30;;;29.60;;
57317;SDS011;43157;50.982;18.132;2022-11-20T15:36:38;117.80;;;48.60;;
57317;SDS011;43157;50.982;18.132;2022-11-20T15:39:04;130.00;;;52.90;;
57317;SDS011;43157;50.982;18.132;2022-11-20T15:41:29;136.90;;;55.20;;
57317;SDS011;43157;50.982;18.132;2022-11-20T15:43:55;135.30;;;49.20;;
57317;SDS011;43157;50.982;18.132;2022-11-20T15:46:24;105.30;;;39.80;;
57317;SDS011;43157;50.982;18.132;2022-11-20T15:48:53;102.70;;;38.80;;
57317;SDS011;43157;50.982;18.132;2022-11-20T15:53:58;101.20;;;39.30;;
57317;SDS011;43157;50.982;18.132;2022-11-20T15:56:24;108.00;;;40.30;;
57317;SDS011;43157;50.982;18.132;2022-11-20T15:58:50;103.90;;;38.50;;
57317;SDS011;43157;50.982;18.132;2022-11-20T16:01:17;165.90;;;61.20;;
57317;SDS011;43157;50.982;18.132;2022-11-20T16:03:42;118.50;;;47.20;;